Cala D'or — EA6992 — position and weather

sailwx.info

Track history (hours):
 
Tides and Currents Weather Stations Pressure Air Temp Water Temp Dewpoint Dewpoint Depression Visibility Wind Speed Wind Dir Waves Ship Positions

Cala D'or

Last reported at 2017-Nov-03 15:27 UTC. Time now 2017-Nov-18 17:23 UTC.
Position N 38°52' E 001°25'.
Warning: this ship's position is 15 days out of date.

Length 17 m.

Type: Ship. MMSI: 224006880.

Date/timePositionNaut miles runAvg speedWind from/ knotsBaromVisibWave heightAir tempDewpointWater temp
2017-Nov-03 15:27N 38°52' E 001°25'  
2017-Oct-30 20:52N 38°55' E 001°27'1 2.6
2017-Oct-30 20:28N 38°54' E 001°25'3 1.0
2017-Oct-30 17:37N 38°51' E 001°25'1 9.1
2017-Oct-30 17:30N 38°52' E 001°25'1 2.5
2017-Oct-30 16:58N 38°54' E 001°25'3 0.6
2017-Oct-30 11:55N 38°51' E 001°25'3 7.3
2017-Oct-30 11:28N 38°54' E 001°25'4 2.7
2017-Oct-30 09:54N 38°49' E 001°25'410.7
2017-Oct-30 09:30N 38°54' E 001°25'1 1.1
2017-Oct-30 08:59N 38°54' E 001°25'1 0.1
2017-Oct-29 21:45N 38°55' E 001°27'0 1.4
2017-Oct-29 21:29N 38°55' E 001°26'0 0.0
2017-Oct-29 08:39N 38°55' E 001°26'0 0.0
2017-Oct-29 08:30N 38°55' E 001°26'4 0.3
2017-Oct-28 16:45N 38°51' E 001°25'2 8.3
2017-Oct-28 16:30N 38°53' E 001°25'1 2.0
2017-Oct-28 16:00N 38°54' E 001°25'5 1.0
2017-Oct-28 11:00N 38°49' E 001°25'510.0
2017-Oct-28 10:30N 38°54' E 001°25'4 2.3
2017-Oct-28 08:57N 38°50' E 001°25'4 7.9
2017-Oct-28 08:29N 38°54' E 001°25'1 2.2
2017-Oct-28 08:00N 38°54' E 001°26'1 0.0
2017-Oct-27 19:42N 38°55' E 001°27'1 5.0
2017-Oct-27 19:30N 38°54' E 001°25'4 1.5
2017-Oct-27 16:52N 38°50' E 001°25'3 9.3
2017-Oct-27 16:30N 38°54' E 001°25'0 0.2
2017-Oct-27 15:59N 38°54' E 001°25'4 0.9
2017-Oct-27 10:54N 38°49' E 001°25'410.8
2017-Oct-27 10:29N 38°54' E 001°25'5 3.3
2017-Oct-27 08:58N 38°49' E 001°25'510.7
2017-Oct-27 08:30N 38°54' E 001°25'2 0.1
2017-Oct-26 19:46N 38°55' E 001°27'1 3.8
2017-Oct-26 19:30N 38°54' E 001°25'4 1.5
2017-Oct-26 16:51N 38°50' E 001°25'310.0
2017-Oct-26 16:30N 38°54' E 001°25'0 0.1
2017-Oct-26 15:59N 38°54' E 001°25'4 0.9
2017-Oct-26 10:59N 38°49' E 001°25'4 8.9
2017-Oct-26 10:29N 38°54' E 001°25'4 2.8
2017-Oct-26 08:57N 38°50' E 001°25'4 9.1
2017-Oct-26 08:29N 38°54' E 001°25'1 1.4
2017-Oct-26 07:59N 38°54' E 001°26'1 0.1
2017-Oct-25 19:47N 38°55' E 001°27'1 3.3
2017-Oct-25 19:29N 38°54' E 001°25'4 1.4
2017-Oct-25 16:44N 38°50' E 001°25'2 8.2
2017-Oct-25 16:28N 38°52' E 001°25'1 2.7
2017-Oct-25 15:56N 38°54' E 001°25'5 0.9
2017-Oct-25 11:00N 38°49' E 001°25'5 9.2
2017-Oct-25 10:29N 38°54' E 001°25'4 2.5
2017-Oct-25 08:57N 38°50' E 001°25'4 8.9
2017-Oct-25 08:31N 38°54' E 001°25'2 0.1
2017-Oct-24 19:49N 38°55' E 001°27'1 3.3
2017-Oct-24 19:30N 38°54' E 001°25'2 0.8
2017-Oct-24 16:43N 38°52' E 001°25'2 8.0
2017-Oct-24 16:29N 38°54' E 001°25'0 0.0
2017-Oct-24 15:59N 38°54' E 001°25'  
Track history (hours):
 
Tides and Currents Weather Stations Pressure Air Temp Water Temp Dewpoint Dewpoint Depression Visibility Wind Speed Wind Dir Waves Ship Positions

Cala D'or

Last reported at 2017-Nov-03 15:27 UTC. Time now 2017-Nov-18 17:23 UTC.
Position N 38°52' E 001°25'.
Warning: this ship's position is 15 days out of date.

Length 17 m.

Type: Ship. MMSI: 224006880.

Date/timePositionNaut miles runAvg speedWind from/ knotsBaromVisibWave heightAir tempDewpointWater temp
2017-Nov-03 15:27N 38°52' E 001°25'  
2017-Oct-30 20:52N 38°55' E 001°27'1 2.6
2017-Oct-30 20:28N 38°54' E 001°25'3 1.0
2017-Oct-30 17:37N 38°51' E 001°25'1 9.1
2017-Oct-30 17:30N 38°52' E 001°25'1 2.5
2017-Oct-30 16:58N 38°54' E 001°25'3 0.6
2017-Oct-30 11:55N 38°51' E 001°25'3 7.3
2017-Oct-30 11:28N 38°54' E 001°25'4 2.7
2017-Oct-30 09:54N 38°49' E 001°25'410.7
2017-Oct-30 09:30N 38°54' E 001°25'1 1.1
2017-Oct-30 08:59N 38°54' E 001°25'1 0.1
2017-Oct-29 21:45N 38°55' E 001°27'0 1.4
2017-Oct-29 21:29N 38°55' E 001°26'0 0.0
2017-Oct-29 08:39N 38°55' E 001°26'0 0.0
2017-Oct-29 08:30N 38°55' E 001°26'4 0.3
2017-Oct-28 16:45N 38°51' E 001°25'2 8.3
2017-Oct-28 16:30N 38°53' E 001°25'1 2.0
2017-Oct-28 16:00N 38°54' E 001°25'5 1.0
2017-Oct-28 11:00N 38°49' E 001°25'510.0
2017-Oct-28 10:30N 38°54' E 001°25'4 2.3
2017-Oct-28 08:57N 38°50' E 001°25'4 7.9
2017-Oct-28 08:29N 38°54' E 001°25'1 2.2
2017-Oct-28 08:00N 38°54' E 001°26'1 0.0
2017-Oct-27 19:42N 38°55' E 001°27'1 5.0
2017-Oct-27 19:30N 38°54' E 001°25'4 1.5
2017-Oct-27 16:52N 38°50' E 001°25'3 9.3
2017-Oct-27 16:30N 38°54' E 001°25'0 0.2
2017-Oct-27 15:59N 38°54' E 001°25'4 0.9
2017-Oct-27 10:54N 38°49' E 001°25'410.8
2017-Oct-27 10:29N 38°54' E 001°25'5 3.3
2017-Oct-27 08:58N 38°49' E 001°25'510.7
2017-Oct-27 08:30N 38°54' E 001°25'2 0.1
2017-Oct-26 19:46N 38°55' E 001°27'1 3.8
2017-Oct-26 19:30N 38°54' E 001°25'4 1.5
2017-Oct-26 16:51N 38°50' E 001°25'310.0
2017-Oct-26 16:30N 38°54' E 001°25'0 0.1
2017-Oct-26 15:59N 38°54' E 001°25'4 0.9
2017-Oct-26 10:59N 38°49' E 001°25'4 8.9
2017-Oct-26 10:29N 38°54' E 001°25'4 2.8
2017-Oct-26 08:57N 38°50' E 001°25'4 9.1
2017-Oct-26 08:29N 38°54' E 001°25'1 1.4
2017-Oct-26 07:59N 38°54' E 001°26'1 0.1
2017-Oct-25 19:47N 38°55' E 001°27'1 3.3
2017-Oct-25 19:29N 38°54' E 001°25'4 1.4
2017-Oct-25 16:44N 38°50' E 001°25'2 8.2
2017-Oct-25 16:28N 38°52' E 001°25'1 2.7
2017-Oct-25 15:56N 38°54' E 001°25'5 0.9
2017-Oct-25 11:00N 38°49' E 001°25'5 9.2
2017-Oct-25 10:29N 38°54' E 001°25'4 2.5
2017-Oct-25 08:57N 38°50' E 001°25'4 8.9
2017-Oct-25 08:31N 38°54' E 001°25'2 0.1
2017-Oct-24 19:49N 38°55' E 001°27'1 3.3
2017-Oct-24 19:30N 38°54' E 001°25'2 0.8
2017-Oct-24 16:43N 38°52' E 001°25'2 8.0
2017-Oct-24 16:29N 38°54' E 001°25'0 0.0
2017-Oct-24 15:59N 38°54' E 001°25'  

Dump ship's entire track history